sensor_id;sensor_type;location;lat;lon;timestamp;pressure;altitude;pressure_sealevel;temperature;humidity
33189;BME280;52601;53.070;10.600;2022-12-07T00:01:14;100967.13;;;3.49;100.00
33189;BME280;52601;53.070;10.600;2022-12-07T00:04:02;100954.22;;;3.44;100.00
33189;BME280;52601;53.070;10.600;2022-12-07T00:06:52;100958.25;;;3.64;100.00
33189;BME280;52601;53.070;10.600;2022-12-07T00:09:38;100954.00;;;3.60;100.00
33189;BME280;52601;53.070;10.600;2022-12-07T00:12:24;100955.84;;;3.50;100.00
33189;BME280;52601;53.070;10.600;2022-12-07T00:15:09;100946.53;;;3.40;100.00
33189;BME280;52601;53.070;10.600;2022-12-07T00:17:55;100941.19;;;3.50;100.00
33189;BME280;52601;53.070;10.600;2022-12-07T00:20:40;100935.19;;;3.47;100.00
33189;BME280;52601;53.070;10.600;2022-12-07T00:23:26;100929.00;;;3.56;100.00
33189;BME280;52601;53.070;10.600;2022-12-07T00:29:04;100903.84;;;3.61;100.00
33189;BME280;52601;53.070;10.600;2022-12-07T00:31:50;100906.41;;;3.62;100.00
33189;BME280;52601;53.070;10.600;2022-12-07T00:34:36;100912.44;;;3.66;100.00
33189;BME280;52601;53.070;10.600;2022-12-07T00:37:21;100897.72;;;3.66;100.00
33189;BME280;52601;53.070;10.600;2022-12-07T00:40:07;100892.47;;;3.69;100.00
33189;BME280;52601;53.070;10.600;2022-12-07T00:42:53;100896.06;;;3.62;100.00
33189;BME280;52601;53.070;10.600;2022-12-07T00:45:38;100891.69;;;3.64;100.00
33189;BME280;52601;53.070;10.600;2022-12-07T00:48:25;100901.13;;;3.68;100.00
33189;BME280;52601;53.070;10.600;2022-12-07T00:51:12;100890.03;;;3.62;100.00
33189;BME280;52601;53.070;10.600;2022-12-07T00:53:58;100878.00;;;3.58;100.00
33189;BME280;52601;53.070;10.600;2022-12-07T00:56:44;100892.34;;;3.77;100.00
33189;BME280;52601;53.070;10.600;2022-12-07T00:59:29;100889.66;;;3.83;100.00
33189;BME280;52601;53.070;10.600;2022-12-07T01:02:15;100876.72;;;3.81;100.00
33189;BME280;52601;53.070;10.600;2022-12-07T01:05:00;100879.22;;;3.86;100.00
33189;BME280;52601;53.070;10.600;2022-12-07T01:07:46;100874.09;;;3.83;100.00
33189;BME280;52601;53.070;10.600;2022-12-07T01:10:32;100863.78;;;3.80;100.00
33189;BME280;52601;53.070;10.600;2022-12-07T01:13:17;100860.19;;;3.87;100.00
33189;BME280;52601;53.070;10.600;2022-12-07T01:16:05;100865.44;;;3.84;100.00
33189;BME280;52601;53.070;10.600;2022-12-07T01:18:52;100854.34;;;3.76;100.00
33189;BME280;52601;53.070;10.600;2022-12-07T01:21:38;100859.44;;;3.80;100.00
33189;BME280;52601;53.070;10.600;2022-12-07T01:24:24;100861.16;;;3.81;100.00
33189;BME280;52601;53.070;10.600;2022-12-07T01:27:10;100837.91;;;3.77;100.00
33189;BME280;52601;53.070;10.600;2022-12-07T01:29:55;100861.00;;;3.89;100.00
33189;BME280;52601;53.070;10.600;2022-12-07T01:32:40;100858.34;;;3.92;100.00
33189;BME280;52601;53.070;10.600;2022-12-07T01:35:26;100853.91;;;3.98;100.00
33189;BME280;52601;53.070;10.600;2022-12-07T01:38:11;100852.91;;;4.05;100.00
33189;BME280;52601;53.070;10.600;2022-12-07T01:40:58;100854.66;;;4.05;100.00
33189;BME280;52601;53.070;10.600;2022-12-07T01:47:06;100840.81;;;4.04;100.00
33189;BME280;52601;53.070;10.600;2022-12-07T01:49:52;100840.88;;;4.01;100.00
33189;BME280;52601;53.070;10.600;2022-12-07T01:52:38;100837.41;;;4.02;100.00
33189;BME280;52601;53.070;10.600;2022-12-07T01:55:25;100826.91;;;4.08;100.00
33189;BME280;52601;53.070;10.600;2022-12-07T01:58:12;100823.69;;;3.96;100.00
33189;BME280;52601;53.070;10.600;2022-12-07T02:00:58;100819.06;;;4.10;100.00
33189;BME280;52601;53.070;10.600;2022-12-07T02:03:44;100794.44;;;3.89;100.00
33189;BME280;52601;53.070;10.600;2022-12-07T02:06:30;100808.06;;;3.99;100.00
33189;BME280;52601;53.070;10.600;2022-12-07T02:09:16;100806.31;;;4.01;100.00
33189;BME280;52601;53.070;10.600;2022-12-07T02:12:02;100803.56;;;4.08;100.00
33189;BME280;52601;53.070;10.600;2022-12-07T02:14:48;100799.31;;;4.04;100.00
33189;BME280;52601;53.070;10.600;2022-12-07T02:27:32;100796.53;;;4.13;100.00
33189;BME280;52601;53.070;10.600;2022-12-07T02:30:21;100798.06;;;4.23;100.00
33189;BME280;52601;53.070;10.600;2022-12-07T02:36:07;100792.00;;;4.23;100.00
33189;BME280;52601;53.070;10.600;2022-12-07T02:41:51;100786.56;;;4.35;100.00
33189;BME280;52601;53.070;10.600;2022-12-07T02:44:38;100791.88;;;4.29;100.00
33189;BME280;52601;53.070;10.600;2022-12-07T02:47:25;100784.09;;;4.29;100.00
33189;BME280;52601;53.070;10.600;2022-12-07T02:50:12;100791.81;;;4.32;100.00
33189;BME280;52601;53.070;10.600;2022-12-07T02:52:57;100783.16;;;4.33;100.00
33189;BME280;52601;53.070;10.600;2022-12-07T02:55:42;100785.75;;;4.33;100.00
33189;BME280;52601;53.070;10.600;2022-12-07T02:58:40;100786.66;;;4.30;100.00
33189;BME280;52601;53.070;10.600;2022-12-07T03:10:43;100776.38;;;4.26;100.00
33189;BME280;52601;53.070;10.600;2022-12-07T03:14:01;100780.59;;;4.30;100.00
33189;BME280;52601;53.070;10.600;2022-12-07T03:16:58;100774.53;;;4.31;100.00
33189;BME280;52601;53.070;10.600;2022-12-07T03:19:49;100766.75;;;4.29;100.00
33189;BME280;52601;53.070;10.600;2022-12-07T03:22:37;100771.00;;;4.35;100.00
33189;BME280;52601;53.070;10.600;2022-12-07T03:25:25;100763.34;;;4.29;100.00
33189;BME280;52601;53.070;10.600;2022-12-07T03:28:15;100772.69;;;4.36;100.00
33189;BME280;52601;53.070;10.600;2022-12-07T03:34:07;100761.53;;;4.32;100.00
33189;BME280;52601;53.070;10.600;2022-12-07T03:37:02;100776.78;;;4.46;100.00
33189;BME280;52601;53.070;10.600;2022-12-07T03:40:06;100781.38;;;4.35;100.00
33189;BME280;52601;53.070;10.600;2022-12-07T03:42:53;100777.75;;;4.42;100.00
33189;BME280;52601;53.070;10.600;2022-12-07T03:45:42;100772.50;;;4.44;100.00
33189;BME280;52601;53.070;10.600;2022-12-07T03:48:41;100770.81;;;4.43;100.00
33189;BME280;52601;53.070;10.600;2022-12-07T03:52:05;100768.56;;;4.26;100.00
33189;BME280;52601;53.070;10.600;2022-12-07T03:58:10;100773.28;;;4.09;100.00
33189;BME280;52601;53.070;10.600;2022-12-07T04:00:57;100761.97;;;4.13;100.00
33189;BME280;52601;53.070;10.600;2022-12-07T04:03:43;100776.88;;;4.02;100.00
33189;BME280;52601;53.070;10.600;2022-12-07T04:06:29;100780.31;;;4.02;100.00
33189;BME280;52601;53.070;10.600;2022-12-07T04:09:15;100781.59;;;3.83;100.00
33189;BME280;52601;53.070;10.600;2022-12-07T04:12:00;100771.38;;;3.76;100.00
33189;BME280;52601;53.070;10.600;2022-12-07T04:14:46;100775.75;;;3.72;100.00
33189;BME280;52601;53.070;10.600;2022-12-07T04:17:32;100775.88;;;3.68;100.00
33189;BME280;52601;53.070;10.600;2022-12-07T04:20:17;100777.66;;;3.63;100.00
33189;BME280;52601;53.070;10.600;2022-12-07T04:23:02;100782.84;;;3.63;100.00
33189;BME280;52601;53.070;10.600;2022-12-07T04:25:48;100787.31;;;3.55;100.00
33189;BME280;52601;53.070;10.600;2022-12-07T04:28:34;100783.25;;;3.41;100.00
33189;BME280;52601;53.070;10.600;2022-12-07T04:31:20;100791.63;;;3.56;100.00
33189;BME280;52601;53.070;10.600;2022-12-07T04:34:06;100775.13;;;3.61;100.00
33189;BME280;52601;53.070;10.600;2022-12-07T04:36:51;100789.50;;;3.77;100.00
33189;BME280;52601;53.070;10.600;2022-12-07T04:39:36;100786.13;;;3.74;100.00
33189;BME280;52601;53.070;10.600;2022-12-07T04:42:22;100781.03;;;3.68;100.00
33189;BME280;52601;53.070;10.600;2022-12-07T04:45:08;100785.13;;;3.79;100.00
33189;BME280;52601;53.070;10.600;2022-12-07T04:47:54;100776.50;;;3.79;100.00
33189;BME280;52601;53.070;10.600;2022-12-07T04:50:39;100779.44;;;3.61;100.00
33189;BME280;52601;53.070;10.600;2022-12-07T04:53:30;100779.44;;;3.61;100.00
33189;BME280;52601;53.070;10.600;2022-12-07T04:56:16;100785.25;;;3.73;100.00
33189;BME280;52601;53.070;10.600;2022-12-07T04:59:02;100785.19;;;3.76;100.00
33189;BME280;52601;53.070;10.600;2022-12-07T05:01:48;100788.78;;;3.69;100.00
33189;BME280;52601;53.070;10.600;2022-12-07T05:04:34;100790.38;;;3.76;100.00
33189;BME280;52601;53.070;10.600;2022-12-07T05:07:19;100790.31;;;3.79;100.00
33189;BME280;52601;53.070;10.600;2022-12-07T05:10:06;100786.97;;;3.73;100.00
33189;BME280;52601;53.070;10.600;2022-12-07T05:12:52;100784.66;;;3.59;100.00
33189;BME280;52601;53.070;10.600;2022-12-07T05:15:37;100794.34;;;3.48;100.00
33189;BME280;52601;53.070;10.600;2022-12-07T05:18:22;100784.13;;;3.42;100.00
33189;BME280;52601;53.070;10.600;2022-12-07T05:21:08;100791.19;;;3.32;100.00
33189;BME280;52601;53.070;10.600;2022-12-07T05:23:53;100785.16;;;3.30;100.00
33189;BME280;52601;53.070;10.600;2022-12-07T05:26:40;100795.66;;;3.23;100.00
33189;BME280;52601;53.070;10.600;2022-12-07T05:29:25;100800.81;;;3.26;100.00
33189;BME280;52601;53.070;10.600;2022-12-07T05:32:11;100787.25;;;3.12;100.00
33189;BME280;52601;53.070;10.600;2022-12-07T05:34:56;100784.78;;;3.03;100.00
33189;BME280;52601;53.070;10.600;2022-12-07T05:37:42;100793.47;;;2.99;100.00
33189;BME280;52601;53.070;10.600;2022-12-07T05:40:27;100797.94;;;2.91;100.00
33189;BME280;52601;53.070;10.600;2022-12-07T05:43:13;100787.03;;;2.71;100.00
33189;BME280;52601;53.070;10.600;2022-12-07T05:45:59;100803.47;;;2.67;100.00
33189;BME280;52601;53.070;10.600;2022-12-07T05:48:44;100799.25;;;2.61;100.00
33189;BME280;52601;53.070;10.600;2022-12-07T05:51:30;100798.38;;;2.62;100.00
33189;BME280;52601;53.070;10.600;2022-12-07T05:54:16;100781.38;;;2.46;100.00
33189;BME280;52601;53.070;10.600;2022-12-07T05:57:01;100796.09;;;2.42;100.00
33189;BME280;52601;53.070;10.600;2022-12-07T05:59:46;100790.19;;;2.31;100.00
33189;BME280;52601;53.070;10.600;2022-12-07T06:02:32;100796.09;;;2.41;100.00
33189;BME280;52601;53.070;10.600;2022-12-07T06:05:17;100799.66;;;2.32;100.00
33189;BME280;52601;53.070;10.600;2022-12-07T06:08:03;100801.41;;;2.32;100.00
33189;BME280;52601;53.070;10.600;2022-12-07T06:10:50;100809.22;;;2.27;100.00
33189;BME280;52601;53.070;10.600;2022-12-07T06:13:56;100801.56;;;2.20;100.00
33189;BME280;52601;53.070;10.600;2022-12-07T06:16:41;100799.00;;;2.18;100.00
33189;BME280;52601;53.070;10.600;2022-12-07T06:19:27;100800.75;;;2.15;100.00
33189;BME280;52601;53.070;10.600;2022-12-07T06:22:13;100791.38;;;2.06;100.00
33189;BME280;52601;53.070;10.600;2022-12-07T06:24:58;100793.22;;;1.95;100.00
33189;BME280;52601;53.070;10.600;2022-12-07T06:27:44;100784.78;;;1.83;100.00
33189;BME280;52601;53.070;10.600;2022-12-07T06:30:29;100790.78;;;1.85;100.00
33189;BME280;52601;53.070;10.600;2022-12-07T06:33:15;100795.16;;;1.80;100.00
33189;BME280;52601;53.070;10.600;2022-12-07T06:46:44;100811.78;;;1.56;100.00
33189;BME280;52601;53.070;10.600;2022-12-07T06:49:30;100791.22;;;1.44;100.00
33189;BME280;52601;53.070;10.600;2022-12-07T06:52:15;100806.72;;;1.47;100.00
33189;BME280;52601;53.070;10.600;2022-12-07T06:55:01;100798.00;;;1.57;100.00
33189;BME280;52601;53.070;10.600;2022-12-07T06:57:46;100798.94;;;1.48;100.00
33189;BME280;52601;53.070;10.600;2022-12-07T07:00:32;100811.03;;;1.42;100.00
33189;BME280;52601;53.070;10.600;2022-12-07T07:03:20;100801.53;;;1.47;100.00
33189;BME280;52601;53.070;10.600;2022-12-07T07:06:06;100789.44;;;1.50;100.00
33189;BME280;52601;53.070;10.600;2022-12-07T07:08:52;100812.50;;;1.68;100.00
33189;BME280;52601;53.070;10.600;2022-12-07T07:11:38;100810.72;;;1.73;100.00
33189;BME280;52601;53.070;10.600;2022-12-07T07:14:24;100810.69;;;1.78;100.00
33189;BME280;52601;53.070;10.600;2022-12-07T07:17:09;100804.63;;;1.79;100.00
33189;BME280;52601;53.070;10.600;2022-12-07T07:19:55;100807.19;;;1.82;100.00
33189;BME280;52601;53.070;10.600;2022-12-07T07:22:40;100789.97;;;1.83;100.00
33189;BME280;52601;53.070;10.600;2022-12-07T07:25:26;100791.50;;;1.96;100.00
33189;BME280;52601;53.070;10.600;2022-12-07T07:28:11;100804.31;;;2.06;100.00
33189;BME280;52601;53.070;10.600;2022-12-07T07:30:57;100804.28;;;2.11;100.00
33189;BME280;52601;53.070;10.600;2022-12-07T07:33:42;100814.59;;;2.09;100.00
33189;BME280;52601;53.070;10.600;2022-12-07T07:36:28;100814.53;;;2.15;100.00
33189;BME280;52601;53.070;10.600;2022-12-07T07:39:13;100804.19;;;2.15;100.00
33189;BME280;52601;53.070;10.600;2022-12-07T07:41:58;100803.44;;;2.07;100.00
33189;BME280;52601;53.070;10.600;2022-12-07T07:44:44;100805.94;;;2.13;100.00
33189;BME280;52601;53.070;10.600;2022-12-07T07:47:29;100788.78;;;2.08;100.00
33189;BME280;52601;53.070;10.600;2022-12-07T07:50:15;100819.41;;;2.38;100.00
33189;BME280;52601;53.070;10.600;2022-12-07T07:53:01;100827.97;;;2.44;100.00
33189;BME280;52601;53.070;10.600;2022-12-07T07:55:53;100819.25;;;2.50;100.00
33189;BME280;52601;53.070;10.600;2022-12-07T07:58:39;100818.34;;;2.54;100.00
33189;BME280;52601;53.070;10.600;2022-12-07T08:01:25;100822.50;;;2.62;100.00
33189;BME280;52601;53.070;10.600;2022-12-07T08:04:11;100824.28;;;2.62;100.00
33189;BME280;52601;53.070;10.600;2022-12-07T08:06:56;100815.50;;;2.71;100.00
33189;BME280;52601;53.070;10.600;2022-12-07T08:09:42;100810.31;;;2.72;100.00
33189;BME280;52601;53.070;10.600;2022-12-07T08:12:28;100815.31;;;2.84;100.00
33189;BME280;52601;53.070;10.600;2022-12-07T08:15:13;100815.41;;;2.78;100.00
33189;BME280;52601;53.070;10.600;2022-12-07T08:17:59;100823.91;;;2.85;100.00
33189;BME280;52601;53.070;10.600;2022-12-07T08:20:44;100817.66;;;2.99;100.00
33189;BME280;52601;53.070;10.600;2022-12-07T08:23:30;100821.00;;;3.06;100.00
33189;BME280;52601;53.070;10.600;2022-12-07T08:26:24;100830.22;;;3.23;100.00
33189;BME280;52601;53.070;10.600;2022-12-07T08:29:10;100832.50;;;3.41;100.00
33189;BME280;52601;53.070;10.600;2022-12-07T08:31:55;100833.28;;;3.45;100.00
33189;BME280;52601;53.070;10.600;2022-12-07T08:34:41;100825.66;;;3.37;100.00
33189;BME280;52601;53.070;10.600;2022-12-07T08:37:26;100832.47;;;3.43;100.00
33189;BME280;52601;53.070;10.600;2022-12-07T08:40:13;100836.75;;;3.45;100.00
33189;BME280;52601;53.070;10.600;2022-12-07T08:43:00;100823.69;;;3.50;100.00
33189;BME280;52601;53.070;10.600;2022-12-07T08:45:47;100838.91;;;3.68;100.00
33189;BME280;52601;53.070;10.600;2022-12-07T08:48:36;100831.97;;;3.72;100.00
33189;BME280;52601;53.070;10.600;2022-12-07T08:51:24;100834.69;;;3.63;100.00
33189;BME280;52601;53.070;10.600;2022-12-07T08:54:11;100813.91;;;3.66;100.00
33189;BME280;52601;53.070;10.600;2022-12-07T08:56:57;100835.41;;;3.71;100.00
33189;BME280;52601;53.070;10.600;2022-12-07T08:59:44;100817.22;;;3.74;100.00
33189;BME280;52601;53.070;10.600;2022-12-07T09:02:31;100831.59;;;3.90;100.00
33189;BME280;52601;53.070;10.600;2022-12-07T09:05:16;100820.63;;;4.18;100.00
33189;BME280;52601;53.070;10.600;2022-12-07T09:08:02;100830.34;;;4.09;100.00
33189;BME280;52601;53.070;10.600;2022-12-07T09:10:48;100832.34;;;4.37;100.00
33189;BME280;52601;53.070;10.600;2022-12-07T09:13:33;100842.00;;;4.31;100.00
33189;BME280;52601;53.070;10.600;2022-12-07T09:16:19;100836.84;;;4.29;100.00
33189;BME280;52601;53.070;10.600;2022-12-07T09:19:04;100826.69;;;4.59;100.00
33189;BME280;52601;53.070;10.600;2022-12-07T09:21:50;100829.31;;;4.59;100.00
33189;BME280;52601;53.070;10.600;2022-12-07T09:24:36;100825.88;;;4.95;100.00
33189;BME280;52601;53.070;10.600;2022-12-07T09:27:21;100817.34;;;5.23;100.00
33189;BME280;52601;53.070;10.600;2022-12-07T09:30:06;100802.88;;;5.79;100.00
33189;BME280;52601;53.070;10.600;2022-12-07T09:32:56;100830.81;;;6.05;100.00
33189;BME280;52601;53.070;10.600;2022-12-07T09:35:46;100833.03;;;5.88;100.00
33189;BME280;52601;53.070;10.600;2022-12-07T09:38:32;100829.09;;;5.40;100.00
33189;BME280;52601;53.070;10.600;2022-12-07T09:41:18;100839.63;;;5.34;100.00
33189;BME280;52601;53.070;10.600;2022-12-07T09:44:09;100832.19;;;5.20;100.00
33189;BME280;52601;53.070;10.600;2022-12-07T09:46:56;100830.88;;;5.38;100.00
33189;BME280;52601;53.070;10.600;2022-12-07T09:49:42;100823.31;;;5.29;100.00
33189;BME280;52601;53.070;10.600;2022-12-07T09:52:28;100834.94;;;5.48;100.00
33189;BME280;52601;53.070;10.600;2022-12-07T09:55:28;100814.66;;;5.28;100.00
33189;BME280;52601;53.070;10.600;2022-12-07T09:58:24;100826.94;;;5.57;100.00
33189;BME280;52601;53.070;10.600;2022-12-07T10:01:19;100817.97;;;5.33;100.00
33189;BME280;52601;53.070;10.600;2022-12-07T10:04:20;100827.09;;;5.51;100.00
33189;BME280;52601;53.070;10.600;2022-12-07T10:07:07;100803.84;;;5.45;100.00
33189;BME280;52601;53.070;10.600;2022-12-07T10:09:52;100816.91;;;5.42;100.00
33189;BME280;52601;53.070;10.600;2022-12-07T10:15:51;100830.56;;;5.16;100.00
33189;BME280;52601;53.070;10.600;2022-12-07T10:18:39;100818.84;;;5.34;100.00
33189;BME280;52601;53.070;10.600;2022-12-07T10:21:29;100816.34;;;5.29;100.00
33189;BME280;52601;53.070;10.600;2022-12-07T10:24:15;100804.22;;;5.30;100.00
33189;BME280;52601;53.070;10.600;2022-12-07T10:27:00;100801.59;;;5.30;100.00
33189;BME280;52601;53.070;10.600;2022-12-07T10:29:48;100830.00;;;5.37;100.00
33189;BME280;52601;53.070;10.600;2022-12-07T10:32:35;100821.53;;;5.29;100.00
33189;BME280;52601;53.070;10.600;2022-12-07T10:35:25;100814.56;;;5.31;100.00
33189;BME280;52601;53.070;10.600;2022-12-07T10:38:16;100800.97;;;5.54;100.00
33189;BME280;52601;53.070;10.600;2022-12-07T10:41:06;100782.66;;;5.58;100.00
33189;BME280;52601;53.070;10.600;2022-12-07T10:43:54;100796.75;;;5.83;100.00
33189;BME280;52601;53.070;10.600;2022-12-07T10:46:50;100784.94;;;6.32;100.00
33189;BME280;52601;53.070;10.600;2022-12-07T10:59:24;100791.41;;;5.88;100.00
33189;BME280;52601;53.070;10.600;2022-12-07T11:03:02;100781.00;;;5.88;100.00
33189;BME280;52601;53.070;10.600;2022-12-07T11:12:42;100779.91;;;5.32;100.00
33189;BME280;52601;53.070;10.600;2022-12-07T11:16:03;100777.31;;;5.64;100.00
33189;BME280;52601;53.070;10.600;2022-12-07T11:24:38;100774.31;;;6.08;100.00
33189;BME280;52601;53.070;10.600;2022-12-07T11:34:42;100763.28;;;5.70;100.00
33189;BME280;52601;53.070;10.600;2022-12-07T11:37:34;100761.06;;;5.88;100.00
33189;BME280;52601;53.070;10.600;2022-12-07T11:40:30;100776.84;;;6.12;100.00
33189;BME280;52601;53.070;10.600;2022-12-07T11:43:26;100784.19;;;5.65;100.00
33189;BME280;52601;53.070;10.600;2022-12-07T11:46:15;100797.72;;;5.46;100.00
33189;BME280;52601;53.070;10.600;2022-12-07T11:49:07;100790.84;;;5.11;100.00
33189;BME280;52601;53.070;10.600;2022-12-07T11:51:59;100776.66;;;4.87;100.00
33189;BME280;52601;53.070;10.600;2022-12-07T11:54:51;100762.38;;;4.71;100.00
33189;BME280;52601;53.070;10.600;2022-12-07T11:57:42;100776.66;;;4.87;100.00
33189;BME280;52601;53.070;10.600;2022-12-07T12:00:29;100764.50;;;5.23;100.00
33189;BME280;52601;53.070;10.600;2022-12-07T12:03:26;100746.53;;;5.48;100.00
33189;BME280;52601;53.070;10.600;2022-12-07T12:06:15;100752.22;;;5.62;100.00
33189;BME280;52601;53.070;10.600;2022-12-07T12:09:12;100756.25;;;6.33;100.00
33189;BME280;52601;53.070;10.600;2022-12-07T12:12:45;100743.00;;;7.93;100.00
33189;BME280;52601;53.070;10.600;2022-12-07T12:16:22;100758.28;;;7.30;95.95
33189;BME280;52601;53.070;10.600;2022-12-07T12:19:26;100768.28;;;7.43;97.36
33189;BME280;52601;53.070;10.600;2022-12-07T12:22:20;100746.16;;;7.78;97.94
33189;BME280;52601;53.070;10.600;2022-12-07T12:25:20;100749.78;;;7.25;96.84
33189;BME280;52601;53.070;10.600;2022-12-07T12:28:20;100747.13;;;7.02;100.00
33189;BME280;52601;53.070;10.600;2022-12-07T12:31:13;100729.72;;;6.76;98.84
33189;BME280;52601;53.070;10.600;2022-12-07T12:34:01;100738.97;;;7.11;99.36
33189;BME280;52601;53.070;10.600;2022-12-07T12:36:48;100743.69;;;7.26;98.18
33189;BME280;52601;53.070;10.600;2022-12-07T12:39:33;100740.44;;;6.93;96.77
33189;BME280;52601;53.070;10.600;2022-12-07T12:42:19;100731.34;;;6.78;99.42
33189;BME280;52601;53.070;10.600;2022-12-07T12:48:29;100738.75;;;6.64;100.00
33189;BME280;52601;53.070;10.600;2022-12-07T12:54:21;100732.06;;;6.83;98.41
33189;BME280;52601;53.070;10.600;2022-12-07T13:00:22;100727.72;;;6.84;99.17
33189;BME280;52601;53.070;10.600;2022-12-07T13:03:22;100733.16;;;7.52;95.33
33189;BME280;52601;53.070;10.600;2022-12-07T13:09:21;100720.06;;;7.04;95.19
33189;BME280;52601;53.070;10.600;2022-12-07T13:12:15;100718.22;;;7.32;96.04
33189;BME280;52601;53.070;10.600;2022-12-07T13:15:01;100703.38;;;8.50;90.16
33189;BME280;52601;53.070;10.600;2022-12-07T13:17:57;100730.13;;;7.64;89.60
33189;BME280;52601;53.070;10.600;2022-12-07T13:21:38;100716.19;;;7.65;90.77
33189;BME280;52601;53.070;10.600;2022-12-07T13:24:10;100726.13;;;6.78;93.69
33189;BME280;52601;53.070;10.600;2022-12-07T13:26:57;100716.50;;;5.99;99.40
33189;BME280;52601;53.070;10.600;2022-12-07T13:29:43;100724.94;;;6.35;99.89
33189;BME280;52601;53.070;10.600;2022-12-07T13:32:29;100720.97;;;6.23;98.88
33189;BME280;52601;53.070;10.600;2022-12-07T13:35:35;100732.31;;;5.91;100.00
33189;BME280;52601;53.070;10.600;2022-12-07T13:38:29;100738.94;;;5.71;100.00
33189;BME280;52601;53.070;10.600;2022-12-07T13:41:17;100735.69;;;5.64;100.00
33189;BME280;52601;53.070;10.600;2022-12-07T13:44:12;100741.63;;;5.37;100.00
33189;BME280;52601;53.070;10.600;2022-12-07T13:49:54;100727.84;;;5.34;100.00
33189;BME280;52601;53.070;10.600;2022-12-07T13:52:44;100734.50;;;5.11;100.00
33189;BME280;52601;53.070;10.600;2022-12-07T13:55:30;100731.09;;;5.09;100.00
33189;BME280;52601;53.070;10.600;2022-12-07T13:58:16;100723.91;;;5.19;100.00
33189;BME280;52601;53.070;10.600;2022-12-07T14:01:01;100719.97;;;4.71;100.00
33189;BME280;52601;53.070;10.600;2022-12-07T14:03:47;100708.91;;;4.63;100.00
33189;BME280;52601;53.070;10.600;2022-12-07T14:06:32;100728.97;;;4.56;100.00
33189;BME280;52601;53.070;10.600;2022-12-07T14:09:21;100735.88;;;4.56;100.00
33189;BME280;52601;53.070;10.600;2022-12-07T14:12:07;100730.84;;;4.50;100.00
33189;BME280;52601;53.070;10.600;2022-12-07T14:14:53;100738.47;;;4.57;100.00
33189;BME280;52601;53.070;10.600;2022-12-07T14:17:50;100738.47;;;4.57;100.00
33189;BME280;52601;53.070;10.600;2022-12-07T14:20:39;100727.50;;;4.45;100.00
33189;BME280;52601;53.070;10.600;2022-12-07T14:23:26;100739.72;;;4.41;100.00
33189;BME280;52601;53.070;10.600;2022-12-07T14:26:14;100740.97;;;4.23;100.00
33189;BME280;52601;53.070;10.600;2022-12-07T14:35:10;100737.16;;;4.00;100.00
33189;BME280;52601;53.070;10.600;2022-12-07T14:37:57;100735.28;;;4.06;100.00
33189;BME280;52601;53.070;10.600;2022-12-07T14:40:42;100715.84;;;3.86;100.00
33189;BME280;52601;53.070;10.600;2022-12-07T14:43:28;100742.19;;;4.06;100.00
33189;BME280;52601;53.070;10.600;2022-12-07T14:46:13;100725.22;;;3.93;100.00
33189;BME280;52601;53.070;10.600;2022-12-07T14:48:59;100732.41;;;3.79;100.00
33189;BME280;52601;53.070;10.600;2022-12-07T14:52:05;100730.13;;;3.64;100.00
33189;BME280;52601;53.070;10.600;2022-12-07T14:55:25;100737.97;;;3.61;100.00
33189;BME280;52601;53.070;10.600;2022-12-07T14:58:13;100724.19;;;3.59;100.00
33189;BME280;52601;53.070;10.600;2022-12-07T15:01:00;100725.94;;;3.57;100.00
33189;BME280;52601;53.070;10.600;2022-12-07T15:03:46;100725.19;;;3.52;100.00
33189;BME280;52601;53.070;10.600;2022-12-07T15:06:32;100731.19;;;3.54;100.00
33189;BME280;52601;53.070;10.600;2022-12-07T15:09:17;100730.84;;;3.27;100.00
33189;BME280;52601;53.070;10.600;2022-12-07T15:12:03;100735.13;;;3.28;100.00
33189;BME280;52601;53.070;10.600;2022-12-07T15:14:49;100735.41;;;3.13;100.00
33189;BME280;52601;53.070;10.600;2022-12-07T15:17:34;100735.28;;;3.19;100.00
33189;BME280;52601;53.070;10.600;2022-12-07T15:20:20;100724.50;;;2.96;100.00
33189;BME280;52601;53.070;10.600;2022-12-07T15:23:06;100727.28;;;2.84;100.00
33189;BME280;52601;53.070;10.600;2022-12-07T15:25:51;100727.59;;;2.66;100.00
33189;BME280;52601;53.070;10.600;2022-12-07T15:28:37;100733.59;;;2.68;100.00
33189;BME280;52601;53.070;10.600;2022-12-07T15:31:22;100734.28;;;2.78;100.00
33189;BME280;52601;53.070;10.600;2022-12-07T15:34:28;100728.25;;;2.77;100.00
33189;BME280;52601;53.070;10.600;2022-12-07T15:37:23;100686.38;;;2.54;100.00
33189;BME280;52601;53.070;10.600;2022-12-07T15:40:10;100737.88;;;2.69;100.00
33189;BME280;52601;53.070;10.600;2022-12-07T15:42:55;100735.19;;;2.75;100.00
33189;BME280;52601;53.070;10.600;2022-12-07T15:45:41;100738.88;;;2.60;100.00
33189;BME280;52601;53.070;10.600;2022-12-07T15:48:26;100738.88;;;2.62;100.00
33189;BME280;52601;53.070;10.600;2022-12-07T15:51:14;100749.41;;;2.50;100.00
33189;BME280;52601;53.070;10.600;2022-12-07T15:54:04;100744.16;;;2.54;100.00
33189;BME280;52601;53.070;10.600;2022-12-07T15:56:50;100735.66;;;2.45;100.00
33189;BME280;52601;53.070;10.600;2022-12-07T15:59:36;100705.50;;;2.44;100.00
33189;BME280;52601;53.070;10.600;2022-12-07T16:02:23;100749.31;;;2.56;100.00
33189;BME280;52601;53.070;10.600;2022-12-07T16:05:09;100745.00;;;2.55;100.00
33189;BME280;52601;53.070;10.600;2022-12-07T16:07:54;100732.97;;;2.52;100.00
33189;BME280;52601;53.070;10.600;2022-12-07T16:10:40;100734.47;;;2.67;100.00
33189;BME280;52601;53.070;10.600;2022-12-07T16:13:28;100720.94;;;2.50;100.00